aviador You're here:

KLIC Decoded Metar

LIMON in CO, USA
Report Time2017-10-17 19:55:00
UTC Time2017-10-17 20:17:26
Flight Rules vfr VFR
Wind190° at 10 Gusting to 19 kt
W.Decomp.*RWY 16: 9.5 kt HW 3.3 kt RCW
W.Rank190° ranks 16
Current wind is below 190° avg. (10.0)
Visibility9999 m
Phenomena:N/A
Clouds:N/A
Expected CloudBase > 13,200 ft AGL from Temp-Dew spread
CeilingNone
Temp23°C (ISA +19)
Dew Point-10°C (10% RH)
AAT16.3°C
QNH1021 hPa
Density Alt7,254 ft
Elevation5,348 ft
Report Wrong Elevation
Raw Report
KLIC 171955Z AUTO 19010G19KT 10SM CLR 23/M10 A3016 RMK AO2 SLP173
T02331100=

Extra information for KLIC:More info

Metar Taf Metar & Taf Last 4 Metars F.Rules Stats Wind Profile Meteogram Temp Stats Airport Information Weather charts Add Link Nearby VenuesMetar ALERT Operation Metar Decoded Social comments

AIRNAV info for KLIC